메인 페이지
METAR-TAF:

METAR-TAF

공항 :

Richard Lloyd Jones Jr. Airport

털사, 오클라호마, 미국

위도: 36-02-33N, 경도: 095-59-22W, 고도: 194m

현재 날씨관측

예보는 21분 전, 19:53시(UTC)에 발표되었습니다.
여러 방향의 바람 6kt
온도 15°C
습도 39%
기압 1022 hPa
시정: 16.1km
고도 6500ft 상공 구름 보통

METAR: KRVS 201953Z VRB06KT 10SM SCT065 15/01 A3019 RMK AO2 SLP232 T01500011

시각: 15:14 (20:14 UTC)

예보

예보는 2 시간 54분 전, 17:20시(UTC)에 발표되었습니다.
예보 대상 시간: 20일 18시부터 21일 18시까지 (UTC)
북서7kt
시정: 10km
고도 4000ft 상공 구름 많음
일시적
20일 18시부터 20일 22시까지 (UTC)
고도 2500ft 상공 구름 많음
21일 1000시부터 (UTC)
여러 방향의 바람 3kt
시정: 10km
맑음
21일 1500시부터 (UTC)
8kt
시정: 10km
맑음

TAF: KRVS 201720Z 2018/2118 31007KT P6SM BKN040 TEMPO 2018/2022 BKN025 FM211000 VRB03KT P6SM SKC FM211500 36008KT P6SM SKC

4,000개 이상의 공항 관측 자료 및 예보 (METAR 및 TAF 보고).

지도상에서 검색 가능한 기상관측소가 노란 점과 빨간 점으로 표시되어 있습니다.

기상관측소 명을 보려면 표시 위로 마우스를 이동하세요.

날씨 관측과 예보를 보려면 클릭하세요.

지도 변경 : 확대하려면 엑스 표시가 있는 녹색 버튼, 축소하려면 빼기 표시가 있는 녹색 버튼, 다음 페이지의 지도를 보려면 녹색 화살표를 클릭하세요.


METAR-TAF: